< Typhoon 196124 1961 Season Typhoon 196126 >
Typhoon 196125 (WILDA)
General InformationTrack Information on Google Maps || Disaster Info.ResourceGoogle EarthGE AnimationAtom FeedGeoJSON
Detalied Best Track (Time Zone = UTC)
Year Month Day Hour Lat. Long. Pressure (hPa) Wind (kt) Class Image Chart
1961 10 5 18 17.3 119.2 1006 0 2 -- Chart
1961 10 6 00 18.0 117.7 1007 0 2 -- Chart
1961 10 6 06 17.0 115.5 1006 0 2 -- Chart
1961 10 6 12 16.0 115.3 1008 0 2 -- Chart
1961 10 6 18 15.5 115.0 1007 0 2 -- Chart
1961 10 7 00 15.4 114.4 1008 0 2 -- Chart
1961 10 7 06 14.4 113.2 1007 0 2 -- Chart
1961 10 7 12 15.2 112.0 1007 0 2 -- Chart
1961 10 7 18 15.5 111.3 1008 0 2 -- Chart
1961 10 8 00 15.3 110.4 1008 0 2 -- Chart
1961 10 8 06 15.5 112.1 1006 0 2 -- Chart
1961 10 8 12 15.0 113.6 1006 0 2 -- Chart
1961 10 8 18 15.6 114.0 1006 0 2 -- Chart
1961 10 9 00 16.0 115.4 1006 0 2 -- Chart
1961 10 9 06 15.4 115.3 1006 0 2 -- Chart
1961 10 9 12 14.0 115.0 1005 0 2 -- Chart
1961 10 9 18 14.3 115.7 1004 0 2 -- Chart
1961 10 10 00 13.5 115.8 1004 0 2 -- Chart
1961 10 10 06 13.5 116.4 1000 0 2 -- Chart
1961 10 10 12 13.5 117.0 1000 0 2 -- Chart
1961 10 10 18 12.5 117.0 1000 0 2 -- Chart
1961 10 11 00 12.5 116.0 1000 0 2 -- Chart
1961 10 11 06 13.2 116.5 994 0 9 -- Chart
1961 10 11 12 13.3 116.2 994 0 9 -- Chart
1961 10 11 18 13.4 115.1 992 0 9 -- Chart
1961 10 12 00 13.5 114.0 990 0 9 -- Chart
1961 10 12 06 13.6 113.0 990 0 9 -- Chart
1961 10 12 12 13.8 111.9 990 0 9 -- Chart
1961 10 12 18 13.9 110.9 990 0 9 -- Chart
1961 10 13 00 14.5 109.2 994 0 9 -- Chart
1961 10 13 06 15.0 108.0 1004 0 2 -- Chart
Japan Meteorological Agency Best Track Data | Correction Date : 1989-06-01
< Typhoon 196124 1961 Season Typhoon 196126 >

Help